createdAt,value
2018-07-30T00:00:30.779Z,26.14
2018-07-30T00:01:02.789Z,26.13
2018-07-30T00:01:34.812Z,26.12
2018-07-30T00:02:06.828Z,26.15
2018-07-30T00:02:38.847Z,26.16
2018-07-30T00:03:10.870Z,26.13
2018-07-30T00:03:42.884Z,26.13
2018-07-30T00:04:14.900Z,26.11
2018-07-30T00:04:46.913Z,26.09
2018-07-30T00:05:18.940Z,26.09
2018-07-30T00:05:50.937Z,26.08
2018-07-30T00:06:22.971Z,26.08
2018-07-30T00:06:54.977Z,26.09
2018-07-30T00:07:26.986Z,26.08
2018-07-30T00:07:58.998Z,26.10
2018-07-30T00:08:31.006Z,26.08
2018-07-30T00:09:03.015Z,26.06
2018-07-30T00:09:35.028Z,26.07
2018-07-30T00:10:07.113Z,26.07
2018-07-30T00:10:39.125Z,26.05
2018-07-30T00:11:11.147Z,26.05
2018-07-30T00:11:43.147Z,26.06
2018-07-30T00:12:15.161Z,26.05
2018-07-30T00:12:47.865Z,26.05
2018-07-30T00:13:19.867Z,26.05
2018-07-30T00:13:51.881Z,26.05
2018-07-30T00:14:23.893Z,26.07
2018-07-30T00:14:55.934Z,26.05
2018-07-30T00:15:27.934Z,26.07
2018-07-30T00:15:59.959Z,26.08
2018-07-30T00:16:31.966Z,26.08
2018-07-30T00:17:03.986Z,26.07
2018-07-30T00:17:35.988Z,26.09
2018-07-30T00:18:07.997Z,26.09
2018-07-30T00:18:40.023Z,26.10
2018-07-30T00:19:12.030Z,26.12
2018-07-30T00:19:44.042Z,26.12
2018-07-30T00:20:16.049Z,26.14
2018-07-30T00:20:48.068Z,26.14
2018-07-30T00:21:20.124Z,26.15
2018-07-30T00:21:52.101Z,26.15
2018-07-30T00:22:24.115Z,26.15
2018-07-30T00:22:56.135Z,26.14
2018-07-30T00:23:28.146Z,26.12
2018-07-30T00:24:00.157Z,26.10
2018-07-30T00:24:32.181Z,26.09
2018-07-30T00:25:04.214Z,26.08
2018-07-30T00:25:36.215Z,26.08
2018-07-30T00:26:08.218Z,26.09
2018-07-30T00:26:40.251Z,26.08
2018-07-30T00:27:12.245Z,26.07
2018-07-30T00:27:44.270Z,26.07
2018-07-30T00:28:16.299Z,26.08
2018-07-30T00:28:48.326Z,26.07
2018-07-30T00:29:20.330Z,26.05
2018-07-30T00:29:52.352Z,26.04
2018-07-30T00:30:24.358Z,26.02
2018-07-30T00:30:56.375Z,26.03
2018-07-30T00:31:28.428Z,26.04
2018-07-30T00:32:00.410Z,26.06
2018-07-30T00:32:32.446Z,26.08
2018-07-30T00:33:04.464Z,26.09
2018-07-30T00:33:36.467Z,26.08
2018-07-30T00:34:08.475Z,26.10
2018-07-30T00:34:40.492Z,26.09
2018-07-30T00:35:12.508Z,26.10
2018-07-30T00:35:44.518Z,26.10
2018-07-30T00:36:16.541Z,26.10
2018-07-30T00:36:48.561Z,26.11
2018-07-30T00:37:20.594Z,26.13
2018-07-30T00:37:52.614Z,26.16
2018-07-30T00:38:24.617Z,26.16
2018-07-30T00:38:56.631Z,26.16
2018-07-30T00:39:28.679Z,26.16
2018-07-30T00:40:00.702Z,26.18
2018-07-30T00:40:32.705Z,26.15
2018-07-30T00:41:04.736Z,26.14
2018-07-30T00:41:36.742Z,26.12
2018-07-30T00:42:08.757Z,26.11
2018-07-30T00:42:40.772Z,26.12
2018-07-30T00:43:12.800Z,26.13
2018-07-30T00:43:44.797Z,26.14
2018-07-30T00:44:16.902Z,26.12
2018-07-30T00:44:48.923Z,26.09
2018-07-30T00:45:20.927Z,26.08
2018-07-30T00:45:52.936Z,26.07
2018-07-30T00:46:24.942Z,26.05
2018-07-30T00:46:56.951Z,26.03
2018-07-30T00:47:28.977Z,26.01
2018-07-30T00:48:00.990Z,25.99
2018-07-30T00:48:33.005Z,25.98
2018-07-30T00:49:05.010Z,25.96
2018-07-30T00:49:37.056Z,25.96
2018-07-30T00:50:09.081Z,25.97
2018-07-30T00:50:41.090Z,26.00
2018-07-30T00:51:13.103Z,26.01
2018-07-30T00:51:45.118Z,26.02
2018-07-30T00:52:17.147Z,26.05
2018-07-30T00:52:49.163Z,26.07
2018-07-30T00:53:21.178Z,26.06
2018-07-30T00:53:53.177Z,26.05
2018-07-30T00:54:25.198Z,26.04
2018-07-30T00:54:57.235Z,26.02
2018-07-30T00:55:29.249Z,26.03
2018-07-30T00:56:01.406Z,26.03
2018-07-30T00:56:33.420Z,26.04
2018-07-30T00:57:05.433Z,26.06
2018-07-30T00:57:37.442Z,26.07
2018-07-30T00:58:09.455Z,26.07
2018-07-30T00:58:41.458Z,26.07
2018-07-30T00:59:13.470Z,26.06
2018-07-30T00:59:45.477Z,26.04
2018-07-30T01:00:17.489Z,26.02
2018-07-30T01:00:49.507Z,26.01
2018-07-30T01:01:21.518Z,26.00
2018-07-30T01:01:53.550Z,25.98
2018-07-30T01:02:25.553Z,25.98
2018-07-30T01:02:57.574Z,25.94
2018-07-30T01:03:29.576Z,25.93
2018-07-30T01:04:01.652Z,25.94
2018-07-30T01:04:33.663Z,25.94
2018-07-30T01:05:05.673Z,25.96
2018-07-30T01:05:37.680Z,25.97
2018-07-30T01:06:09.702Z,25.99
2018-07-30T01:06:41.714Z,26.03
2018-07-30T01:07:13.735Z,26.04
2018-07-30T01:07:45.811Z,26.04
2018-07-30T01:08:17.750Z,26.04
2018-07-30T01:08:49.759Z,26.05
2018-07-30T01:09:21.776Z,26.03
2018-07-30T01:09:53.778Z,26.02
2018-07-30T01:10:25.839Z,26.02
2018-07-30T01:10:57.802Z,25.99
2018-07-30T01:11:29.821Z,26.00
2018-07-30T01:12:01.824Z,25.99
2018-07-30T01:12:33.835Z,25.97
2018-07-30T01:13:05.853Z,25.94
2018-07-30T01:13:37.854Z,25.94
2018-07-30T01:14:09.892Z,25.94
2018-07-30T01:14:41.896Z,25.96
2018-07-30T01:15:13.906Z,25.97
2018-07-30T01:15:45.917Z,25.97
2018-07-30T01:16:17.928Z,25.98
2018-07-30T01:16:49.958Z,25.99
2018-07-30T01:17:21.967Z,25.99
2018-07-30T01:17:53.978Z,25.98
2018-07-30T01:18:25.990Z,25.98
2018-07-30T01:18:57.997Z,25.98
2018-07-30T01:19:30.016Z,25.97
2018-07-30T01:20:02.093Z,25.96
2018-07-30T01:20:34.112Z,25.96
2018-07-30T01:21:06.132Z,25.96
2018-07-30T01:21:38.167Z,25.94
2018-07-30T01:22:10.162Z,25.92
2018-07-30T01:22:42.181Z,25.90
2018-07-30T01:23:14.222Z,25.89
2018-07-30T01:23:46.221Z,25.87
2018-07-30T01:24:18.232Z,25.87
2018-07-30T01:24:50.222Z,25.87
2018-07-30T01:25:22.248Z,25.86
2018-07-30T01:25:54.256Z,25.86
2018-07-30T01:26:26.263Z,25.85
2018-07-30T01:26:58.286Z,25.85
2018-07-30T01:27:30.284Z,25.84
2018-07-30T01:28:02.337Z,25.85
2018-07-30T01:28:34.356Z,25.84
2018-07-30T01:29:06.751Z,25.84
2018-07-30T01:29:38.675Z,25.84
2018-07-30T01:30:10.654Z,25.83
2018-07-30T01:30:42.665Z,25.83
2018-07-30T01:31:14.674Z,25.82
2018-07-30T01:31:46.679Z,25.82
2018-07-30T01:32:18.750Z,25.81
2018-07-30T01:32:50.768Z,25.81
2018-07-30T01:33:22.775Z,25.81
2018-07-30T01:33:54.774Z,25.81
2018-07-30T01:34:26.803Z,25.81
2018-07-30T01:34:58.824Z,25.82
2018-07-30T01:35:30.830Z,25.83
2018-07-30T01:36:02.848Z,25.84
2018-07-30T01:36:34.862Z,25.83
2018-07-30T01:37:06.896Z,25.83
2018-07-30T01:37:38.893Z,25.84
2018-07-30T01:38:10.902Z,25.84
2018-07-30T01:38:42.914Z,25.84
2018-07-30T01:39:14.935Z,25.84
2018-07-30T01:39:46.917Z,25.85
2018-07-30T01:40:18.939Z,25.86
2018-07-30T01:40:50.942Z,25.86
2018-07-30T01:41:22.963Z,25.85
2018-07-30T01:41:54.980Z,25.87
2018-07-30T01:42:26.986Z,25.87
2018-07-30T01:42:59.001Z,25.87
2018-07-30T01:43:31.013Z,25.87
2018-07-30T01:44:03.018Z,25.87
2018-07-30T01:44:35.025Z,25.86
2018-07-30T01:45:07.042Z,25.86
2018-07-30T01:45:39.045Z,25.85
2018-07-30T01:46:11.054Z,25.85
2018-07-30T01:46:43.071Z,25.85
2018-07-30T01:47:15.082Z,25.84
2018-07-30T01:47:47.086Z,25.83
2018-07-30T01:48:19.111Z,25.83
2018-07-30T01:48:51.127Z,25.82
2018-07-30T01:49:23.145Z,25.81
2018-07-30T01:49:55.182Z,25.82
2018-07-30T01:50:27.187Z,25.82
2018-07-30T01:50:59.215Z,25.83
2018-07-30T01:51:31.216Z,25.82
2018-07-30T01:52:03.240Z,25.81
2018-07-30T01:52:35.249Z,25.83
2018-07-30T01:53:07.254Z,25.83
2018-07-30T01:53:39.286Z,25.84
2018-07-30T01:54:11.294Z,25.83
2018-07-30T01:54:43.310Z,25.82
2018-07-30T01:55:15.343Z,25.82
2018-07-30T01:55:47.360Z,25.84
2018-07-30T01:56:19.379Z,25.83
2018-07-30T01:56:51.376Z,25.84
2018-07-30T01:57:23.436Z,25.83
2018-07-30T01:57:55.455Z,25.82
2018-07-30T01:58:27.470Z,25.80
2018-07-30T01:58:59.479Z,25.79
2018-07-30T01:59:31.495Z,25.78
2018-07-30T02:00:03.503Z,25.76
2018-07-30T02:00:35.510Z,25.76
2018-07-30T02:01:07.531Z,25.75
2018-07-30T02:01:39.549Z,25.75
2018-07-30T02:02:11.559Z,25.77
2018-07-30T02:02:43.578Z,25.78
2018-07-30T02:03:15.581Z,25.78
2018-07-30T02:03:47.598Z,25.78
2018-07-30T02:04:19.617Z,25.78
2018-07-30T02:04:51.630Z,25.78
2018-07-30T02:05:23.646Z,25.79
2018-07-30T02:05:55.654Z,25.78
2018-07-30T02:06:27.662Z,25.79
2018-07-30T02:06:59.673Z,25.79
2018-07-30T02:07:31.680Z,25.79
2018-07-30T02:08:03.683Z,25.78
2018-07-30T02:08:35.692Z,25.79
2018-07-30T02:09:07.706Z,25.79
2018-07-30T02:09:39.725Z,25.79
2018-07-30T02:10:11.745Z,25.81
2018-07-30T02:10:43.755Z,25.80
2018-07-30T02:11:15.757Z,25.81
2018-07-30T02:11:47.778Z,25.81
2018-07-30T02:12:19.803Z,25.82
2018-07-30T02:12:51.814Z,25.83
2018-07-30T02:13:23.823Z,25.84
2018-07-30T02:13:55.851Z,25.84
2018-07-30T02:14:27.866Z,25.83
2018-07-30T02:14:59.875Z,25.83
2018-07-30T02:15:31.971Z,25.82
2018-07-30T02:16:03.989Z,25.83
2018-07-30T02:16:35.995Z,25.81
2018-07-30T02:17:07.998Z,25.80
2018-07-30T02:17:40.013Z,25.80
2018-07-30T02:18:12.030Z,25.78
2018-07-30T02:18:44.047Z,25.78
2018-07-30T02:19:16.074Z,25.77
2018-07-30T02:19:48.082Z,25.77
2018-07-30T02:20:20.091Z,25.76
2018-07-30T02:20:52.107Z,25.74
2018-07-30T02:21:24.139Z,25.73
2018-07-30T02:21:56.130Z,25.73
2018-07-30T02:22:28.142Z,25.72
2018-07-30T02:23:00.155Z,25.72
2018-07-30T02:23:32.167Z,25.72
2018-07-30T02:24:04.178Z,25.73
2018-07-30T02:24:36.201Z,25.73
2018-07-30T02:25:08.212Z,25.72
2018-07-30T02:25:40.251Z,25.72
2018-07-30T02:26:12.271Z,25.73
2018-07-30T02:26:44.279Z,25.74
2018-07-30T02:27:16.301Z,25.74
2018-07-30T02:27:48.324Z,25.73
2018-07-30T02:28:20.339Z,25.74
2018-07-30T02:28:52.350Z,25.75
2018-07-30T02:29:24.430Z,25.73
2018-07-30T02:29:56.425Z,25.74
2018-07-30T02:30:28.444Z,25.74
2018-07-30T02:31:00.453Z,25.74
2018-07-30T02:31:32.472Z,25.75
2018-07-30T02:32:04.484Z,25.74
2018-07-30T02:32:36.502Z,25.73
2018-07-30T02:33:08.506Z,25.73
2018-07-30T02:33:40.524Z,25.73
2018-07-30T02:34:12.524Z,25.75
2018-07-30T02:34:44.532Z,25.74
2018-07-30T02:35:16.541Z,25.74
2018-07-30T02:35:48.567Z,25.74
2018-07-30T02:36:20.625Z,25.73
2018-07-30T02:36:52.614Z,25.72
2018-07-30T02:37:24.627Z,25.71
2018-07-30T02:37:56.639Z,25.72
2018-07-30T02:38:28.664Z,25.71
2018-07-30T02:39:00.683Z,25.70
2018-07-30T02:39:32.700Z,25.70
2018-07-30T02:40:04.714Z,25.70
2018-07-30T02:40:36.729Z,25.68
2018-07-30T02:41:08.754Z,25.70
2018-07-30T02:41:40.765Z,25.69
2018-07-30T02:42:12.778Z,25.70
2018-07-30T02:42:44.784Z,25.71
2018-07-30T02:43:16.821Z,25.74
2018-07-30T02:43:48.820Z,25.76
2018-07-30T02:44:20.827Z,25.77
2018-07-30T02:44:52.837Z,25.77
2018-07-30T02:45:24.855Z,25.79
2018-07-30T02:45:56.909Z,25.78
2018-07-30T02:46:28.906Z,25.78
2018-07-30T02:47:00.932Z,25.77
2018-07-30T02:47:32.939Z,25.77
2018-07-30T02:48:04.946Z,25.76
2018-07-30T02:48:36.963Z,25.75
2018-07-30T02:49:08.974Z,25.76
2018-07-30T02:49:40.977Z,25.75
2018-07-30T02:50:12.998Z,25.74
2018-07-30T02:50:45.011Z,25.74
2018-07-30T02:51:17.029Z,25.73
2018-07-30T02:51:49.051Z,25.71
2018-07-30T02:52:21.060Z,25.70
2018-07-30T02:52:53.074Z,25.72
2018-07-30T02:53:25.083Z,25.71
2018-07-30T02:53:57.103Z,25.71
2018-07-30T02:54:29.127Z,25.70
2018-07-30T02:55:01.139Z,25.69
2018-07-30T02:55:33.145Z,25.69
2018-07-30T02:56:05.272Z,25.69
2018-07-30T02:56:37.251Z,25.71
2018-07-30T02:57:09.267Z,25.69
2018-07-30T02:57:41.323Z,25.69
2018-07-30T02:58:13.289Z,25.68
2018-07-30T02:58:45.329Z,25.67
2018-07-30T02:59:17.349Z,25.65
2018-07-30T02:59:49.351Z,25.66
2018-07-30T03:00:21.362Z,25.67
2018-07-30T03:00:53.370Z,25.67
2018-07-30T03:01:25.390Z,25.66
2018-07-30T03:01:57.495Z,25.66
2018-07-30T03:02:29.500Z,25.67
2018-07-30T03:03:01.516Z,25.65
2018-07-30T03:03:33.519Z,25.62
2018-07-30T03:04:05.550Z,25.64
2018-07-30T03:04:37.560Z,25.64
2018-07-30T03:05:09.571Z,25.62
2018-07-30T03:05:41.581Z,25.61
2018-07-30T03:06:13.591Z,25.61
2018-07-30T03:06:45.607Z,25.61
2018-07-30T03:07:17.614Z,25.60
2018-07-30T03:07:49.621Z,25.61
2018-07-30T03:08:21.632Z,25.61
2018-07-30T03:08:53.667Z,25.63
2018-07-30T03:09:25.684Z,25.63
2018-07-30T03:09:57.670Z,25.62
2018-07-30T03:10:29.709Z,25.62
2018-07-30T03:11:01.753Z,25.62
2018-07-30T03:11:33.763Z,25.62
2018-07-30T03:12:05.781Z,25.62
2018-07-30T03:12:37.789Z,25.63
2018-07-30T03:13:09.793Z,25.64
2018-07-30T03:13:41.800Z,25.64
2018-07-30T03:14:13.839Z,25.64
2018-07-30T03:14:45.846Z,25.65
2018-07-30T03:15:17.863Z,25.67
2018-07-30T03:15:49.861Z,25.68
2018-07-30T03:16:21.900Z,25.68
2018-07-30T03:16:53.932Z,25.68
2018-07-30T03:17:25.938Z,25.67
2018-07-30T03:17:57.964Z,25.67
2018-07-30T03:18:29.971Z,25.66
2018-07-30T03:19:01.984Z,25.66
2018-07-30T03:19:34.003Z,25.67
2018-07-30T03:20:06.016Z,25.65
2018-07-30T03:20:38.035Z,25.65
2018-07-30T03:21:10.051Z,25.64
2018-07-30T03:21:42.062Z,25.62
2018-07-30T03:22:14.111Z,25.61
2018-07-30T03:22:46.105Z,25.60
2018-07-30T03:23:18.125Z,25.59
2018-07-30T03:23:50.155Z,25.59
2018-07-30T03:24:22.160Z,25.59
2018-07-30T03:24:54.171Z,25.58
2018-07-30T03:25:26.180Z,25.57
2018-07-30T03:25:58.187Z,25.58
2018-07-30T03:26:30.197Z,25.57
2018-07-30T03:27:02.202Z,25.57
2018-07-30T03:27:34.219Z,25.57
2018-07-30T03:28:06.229Z,25.57
2018-07-30T03:28:38.268Z,25.57
2018-07-30T03:29:10.245Z,25.57
2018-07-30T03:29:42.266Z,25.57
2018-07-30T03:30:14.271Z,25.58
2018-07-30T03:30:46.290Z,25.58
2018-07-30T03:31:18.299Z,25.59
2018-07-30T03:31:50.311Z,25.59
2018-07-30T03:32:22.344Z,25.59
2018-07-30T03:32:54.363Z,25.59
2018-07-30T03:33:26.364Z,25.59
2018-07-30T03:33:58.390Z,25.61
2018-07-30T03:34:30.407Z,25.60
2018-07-30T03:35:02.419Z,25.59
2018-07-30T03:35:34.426Z,25.59
2018-07-30T03:36:06.434Z,25.59
2018-07-30T03:36:38.442Z,25.59
2018-07-30T03:37:10.474Z,25.58
2018-07-30T03:37:42.478Z,25.59
2018-07-30T03:38:14.506Z,25.58
2018-07-30T03:38:46.520Z,25.59
2018-07-30T03:39:18.522Z,25.59
2018-07-30T03:39:50.539Z,25.60
2018-07-30T03:40:22.549Z,25.60
2018-07-30T03:40:54.554Z,25.61
2018-07-30T03:41:26.559Z,25.62
2018-07-30T03:41:58.566Z,25.62
2018-07-30T03:42:30.589Z,25.62
2018-07-30T03:43:02.612Z,25.64
2018-07-30T03:43:34.619Z,25.66
2018-07-30T03:44:06.625Z,25.66
2018-07-30T03:44:38.630Z,25.65
2018-07-30T03:45:10.639Z,25.65
2018-07-30T03:45:42.642Z,25.66
2018-07-30T03:46:14.651Z,25.65
2018-07-30T03:46:46.681Z,25.66
2018-07-30T03:47:18.694Z,25.66
2018-07-30T03:47:50.707Z,25.66
2018-07-30T03:48:22.722Z,25.67
2018-07-30T03:48:54.732Z,25.65
2018-07-30T03:49:26.753Z,25.64
2018-07-30T03:49:58.762Z,25.65
2018-07-30T03:50:30.778Z,25.62
2018-07-30T03:51:02.792Z,25.62
2018-07-30T03:51:34.804Z,25.62
2018-07-30T03:52:06.817Z,25.62
2018-07-30T03:52:38.834Z,25.64
2018-07-30T03:53:10.850Z,25.64
2018-07-30T03:53:42.865Z,25.62
2018-07-30T03:54:14.878Z,25.62
2018-07-30T03:54:46.948Z,25.62
2018-07-30T03:55:18.900Z,25.64
2018-07-30T03:55:50.922Z,25.65
2018-07-30T03:56:22.943Z,25.67
2018-07-30T03:56:54.982Z,25.67
2018-07-30T03:57:26.993Z,25.67
2018-07-30T03:57:59.011Z,25.66
2018-07-30T03:58:31.012Z,25.66
2018-07-30T03:59:03.023Z,25.65
2018-07-30T03:59:35.029Z,25.62
2018-07-30T04:00:07.062Z,25.62
2018-07-30T04:00:39.052Z,25.62
2018-07-30T04:01:11.064Z,25.62
2018-07-30T04:01:43.081Z,25.64
2018-07-30T04:02:15.087Z,25.64
2018-07-30T04:02:47.169Z,25.66
2018-07-30T04:03:19.184Z,25.67
2018-07-30T04:03:51.199Z,25.67
2018-07-30T04:04:23.197Z,25.66
2018-07-30T04:04:55.215Z,25.66
2018-07-30T04:05:27.227Z,25.65
2018-07-30T04:05:59.270Z,25.65
2018-07-30T04:06:31.323Z,25.64
2018-07-30T04:07:03.286Z,25.64
2018-07-30T04:07:35.289Z,25.64
2018-07-30T04:08:07.322Z,25.61
2018-07-30T04:08:39.325Z,25.60
2018-07-30T04:09:11.436Z,25.61
2018-07-30T04:09:43.415Z,25.59
2018-07-30T04:10:15.426Z,25.58
2018-07-30T04:10:47.434Z,25.57
2018-07-30T04:11:19.451Z,25.57
2018-07-30T04:11:51.462Z,25.55
2018-07-30T04:12:23.477Z,25.55
2018-07-30T04:12:55.530Z,25.53
2018-07-30T04:13:27.539Z,25.52
2018-07-30T04:13:59.556Z,25.53
2018-07-30T04:14:31.579Z,25.53
2018-07-30T04:15:03.583Z,25.53
2018-07-30T04:15:35.602Z,25.53
2018-07-30T04:16:07.620Z,25.54
2018-07-30T04:16:39.647Z,25.54
2018-07-30T04:17:11.682Z,25.53
2018-07-30T04:17:43.689Z,25.53
2018-07-30T04:18:15.696Z,25.53
2018-07-30T04:18:47.719Z,25.53
2018-07-30T04:19:19.717Z,25.53
2018-07-30T04:19:51.734Z,25.52
2018-07-30T04:20:23.749Z,25.53
2018-07-30T04:20:55.761Z,25.54
2018-07-30T04:21:27.778Z,25.54
2018-07-30T04:21:59.828Z,25.53
2018-07-30T04:22:31.818Z,25.53
2018-07-30T04:23:03.838Z,25.52
2018-07-30T04:23:35.853Z,25.52
2018-07-30T04:24:07.908Z,25.52
2018-07-30T04:24:39.890Z,25.51
2018-07-30T04:25:11.900Z,25.52
2018-07-30T04:25:43.911Z,25.51
2018-07-30T04:26:15.931Z,25.50
2018-07-30T04:26:47.934Z,25.50
2018-07-30T04:27:19.953Z,25.50
2018-07-30T04:27:51.953Z,25.50
2018-07-30T04:28:23.961Z,25.50
2018-07-30T04:28:55.993Z,25.50
2018-07-30T04:29:27.990Z,25.50
2018-07-30T04:30:00.022Z,25.50
2018-07-30T04:30:32.038Z,25.51
2018-07-30T04:31:04.044Z,25.51
2018-07-30T04:31:36.067Z,25.53
2018-07-30T04:32:08.164Z,25.53
2018-07-30T04:32:40.143Z,25.54
2018-07-30T04:33:12.159Z,25.55
2018-07-30T04:33:44.158Z,25.55
2018-07-30T04:34:16.175Z,25.55
2018-07-30T04:34:48.176Z,25.55
2018-07-30T04:35:20.194Z,25.56
2018-07-30T04:35:52.203Z,25.57
2018-07-30T04:36:24.242Z,25.56
2018-07-30T04:36:56.251Z,25.56
2018-07-30T04:37:28.262Z,25.56
2018-07-30T04:38:00.283Z,25.55
2018-07-30T04:38:32.297Z,25.55
2018-07-30T04:39:04.316Z,25.53
2018-07-30T04:39:36.417Z,25.53
2018-07-30T04:40:08.393Z,25.52
2018-07-30T04:40:40.398Z,25.53
2018-07-30T04:41:12.415Z,25.53
2018-07-30T04:41:44.424Z,25.53
2018-07-30T04:42:16.479Z,25.53
2018-07-30T04:42:48.488Z,25.50
2018-07-30T04:43:20.489Z,25.50
2018-07-30T04:43:52.598Z,25.51
2018-07-30T04:44:24.510Z,25.49
2018-07-30T04:44:56.522Z,25.49
2018-07-30T04:45:28.541Z,25.50
2018-07-30T04:46:00.546Z,25.49
2018-07-30T04:46:32.633Z,25.50
2018-07-30T04:47:04.642Z,25.50
2018-07-30T04:47:36.666Z,25.50
2018-07-30T04:48:08.679Z,25.50
2018-07-30T04:48:40.686Z,25.50
2018-07-30T04:49:12.725Z,25.49
2018-07-30T04:49:44.719Z,25.48
2018-07-30T04:50:16.758Z,25.49
2018-07-30T04:50:48.730Z,25.50
2018-07-30T04:51:20.742Z,25.50
2018-07-30T04:51:52.759Z,25.50
2018-07-30T04:52:24.798Z,25.50
2018-07-30T04:52:56.810Z,25.50
2018-07-30T04:53:28.937Z,25.50
2018-07-30T04:54:00.916Z,25.51
2018-07-30T04:54:32.939Z,25.53
2018-07-30T04:55:04.961Z,25.54
2018-07-30T04:55:36.963Z,25.53
2018-07-30T04:56:08.974Z,25.53
2018-07-30T04:56:40.974Z,25.54
2018-07-30T04:57:13.051Z,25.53
2018-07-30T04:57:45.075Z,25.53
2018-07-30T04:58:17.075Z,25.52
2018-07-30T04:58:49.082Z,25.53
2018-07-30T04:59:21.107Z,25.52
2018-07-30T04:59:53.125Z,25.52
2018-07-30T05:00:25.130Z,25.53
2018-07-30T05:00:57.146Z,25.51
2018-07-30T05:01:29.192Z,25.51
2018-07-30T05:02:01.207Z,25.50
2018-07-30T05:02:33.273Z,25.49
2018-07-30T05:03:05.280Z,25.46
2018-07-30T05:03:37.313Z,25.46
2018-07-30T05:04:09.320Z,25.46
2018-07-30T05:04:41.340Z,25.47
2018-07-30T05:05:13.574Z,25.45
2018-07-30T05:05:45.598Z,25.46
2018-07-30T05:06:17.591Z,25.45
2018-07-30T05:06:49.620Z,25.45
2018-07-30T05:07:21.634Z,25.45
2018-07-30T05:07:53.640Z,25.45
2018-07-30T05:08:25.683Z,25.45
2018-07-30T05:08:57.703Z,25.43
2018-07-30T05:09:29.706Z,25.42
2018-07-30T05:10:01.717Z,25.43
2018-07-30T05:10:33.738Z,25.41
2018-07-30T05:11:05.745Z,25.41
2018-07-30T05:11:37.784Z,25.43
2018-07-30T05:12:09.799Z,25.42
2018-07-30T05:12:41.802Z,25.41
2018-07-30T05:13:13.831Z,25.40
2018-07-30T05:13:45.842Z,25.41
2018-07-30T05:14:17.870Z,25.39
2018-07-30T05:14:49.896Z,25.38
2018-07-30T05:15:21.902Z,25.36
2018-07-30T05:15:53.909Z,25.35
2018-07-30T05:16:25.928Z,25.34
2018-07-30T05:16:57.983Z,25.34
2018-07-30T05:17:29.981Z,25.31
2018-07-30T05:18:01.990Z,25.31
2018-07-30T05:18:33.997Z,25.31
2018-07-30T05:19:06.008Z,25.29
2018-07-30T05:19:38.057Z,25.30
2018-07-30T05:20:10.042Z,25.28
2018-07-30T05:20:42.064Z,25.28
2018-07-30T05:21:14.089Z,25.29
2018-07-30T05:21:46.092Z,25.30
2018-07-30T05:22:18.102Z,25.31
2018-07-30T05:22:50.115Z,25.33
2018-07-30T05:23:22.138Z,25.34
2018-07-30T05:23:54.156Z,25.36
2018-07-30T05:24:26.166Z,25.36
2018-07-30T05:24:58.179Z,25.37
2018-07-30T05:25:30.221Z,25.38
2018-07-30T05:26:02.228Z,25.38
2018-07-30T05:26:34.242Z,25.39
2018-07-30T05:27:06.252Z,25.40
2018-07-30T05:27:38.355Z,25.40
2018-07-30T05:28:10.360Z,25.41
2018-07-30T05:28:42.362Z,25.43
2018-07-30T05:29:14.409Z,25.42
2018-07-30T05:29:46.414Z,25.43
2018-07-30T05:30:18.430Z,25.44
2018-07-30T05:30:50.444Z,25.43
2018-07-30T05:31:22.466Z,25.44
2018-07-30T05:31:54.488Z,25.44
2018-07-30T05:32:26.500Z,25.45
2018-07-30T05:32:58.526Z,25.45
2018-07-30T05:33:30.531Z,25.45
2018-07-30T05:34:02.551Z,25.45
2018-07-30T05:34:34.574Z,25.47
2018-07-30T05:35:06.582Z,25.47
2018-07-30T05:35:38.582Z,25.46
2018-07-30T05:36:10.617Z,25.46
2018-07-30T05:36:42.626Z,25.48
2018-07-30T05:37:14.670Z,25.49
2018-07-30T05:37:46.660Z,25.48
2018-07-30T05:38:18.671Z,25.46
2018-07-30T05:38:50.688Z,25.45
2018-07-30T05:39:22.694Z,25.47
2018-07-30T05:39:54.713Z,25.48
2018-07-30T05:40:26.719Z,25.49
2018-07-30T05:40:58.741Z,25.48
2018-07-30T05:41:30.737Z,25.49
2018-07-30T05:42:02.762Z,25.48
2018-07-30T05:42:34.779Z,25.48
2018-07-30T05:43:06.820Z,25.50
2018-07-30T05:43:38.830Z,25.50
2018-07-30T05:44:10.837Z,25.51
2018-07-30T05:44:42.851Z,25.51
2018-07-30T05:45:14.871Z,25.51
2018-07-30T05:45:46.881Z,25.52
2018-07-30T05:46:18.914Z,25.53
2018-07-30T05:46:51.027Z,25.53
2018-07-30T05:47:23.010Z,25.54
2018-07-30T05:47:55.031Z,25.53
2018-07-30T05:48:27.044Z,25.53
2018-07-30T05:48:59.051Z,25.53
2018-07-30T05:49:31.067Z,25.51
2018-07-30T05:50:03.136Z,25.51
2018-07-30T05:50:35.089Z,25.50
2018-07-30T05:51:07.094Z,25.50
2018-07-30T05:51:39.110Z,25.51
2018-07-30T05:52:11.131Z,25.49
2018-07-30T05:52:43.146Z,25.49
2018-07-30T05:53:15.200Z,25.49
2018-07-30T05:53:47.226Z,25.50
2018-07-30T05:54:19.238Z,25.50
2018-07-30T05:54:51.247Z,25.49
2018-07-30T05:55:23.267Z,25.50
2018-07-30T05:55:55.286Z,25.50
2018-07-30T05:56:27.305Z,25.50
2018-07-30T05:56:59.338Z,25.49
2018-07-30T05:57:31.443Z,25.51
2018-07-30T05:58:03.443Z,25.53
2018-07-30T05:58:35.455Z,25.52
2018-07-30T05:59:07.503Z,25.52
2018-07-30T05:59:39.544Z,25.52
2018-07-30T06:00:11.511Z,25.52
2018-07-30T06:00:43.526Z,25.52
2018-07-30T06:01:15.626Z,25.51
2018-07-30T06:01:47.634Z,25.51
2018-07-30T06:02:19.658Z,25.51
2018-07-30T06:02:51.677Z,25.52
2018-07-30T06:03:23.722Z,25.53
2018-07-30T06:03:55.858Z,25.53
2018-07-30T06:04:27.845Z,25.54
2018-07-30T06:04:59.865Z,25.57
2018-07-30T06:05:31.922Z,25.57
2018-07-30T06:06:03.901Z,25.57
2018-07-30T06:06:35.914Z,25.58
2018-07-30T06:07:07.985Z,25.60
2018-07-30T06:07:40.009Z,25.60
2018-07-30T06:08:12.031Z,25.60
2018-07-30T06:08:44.033Z,25.62
2018-07-30T06:09:16.169Z,25.64
2018-07-30T06:09:48.169Z,25.64
2018-07-30T06:10:20.170Z,25.64
2018-07-30T06:10:52.176Z,25.65
2018-07-30T06:11:24.201Z,25.66
2018-07-30T06:11:56.216Z,25.65
2018-07-30T06:12:28.229Z,25.65
2018-07-30T06:13:00.248Z,25.65
2018-07-30T06:13:32.262Z,25.65
2018-07-30T06:14:04.281Z,25.64
2018-07-30T06:14:36.317Z,25.64
2018-07-30T06:15:08.303Z,25.64
2018-07-30T06:15:40.312Z,25.62
2018-07-30T06:16:12.324Z,25.62
2018-07-30T06:16:44.339Z,25.62
2018-07-30T06:17:16.346Z,25.62
2018-07-30T06:17:48.379Z,25.64
2018-07-30T06:18:20.412Z,25.65
2018-07-30T06:18:52.424Z,25.67
2018-07-30T06:19:24.491Z,25.68
2018-07-30T06:19:56.509Z,25.69
2018-07-30T06:20:28.518Z,25.69
2018-07-30T06:21:00.622Z,25.70
2018-07-30T06:21:32.546Z,25.70
2018-07-30T06:22:04.572Z,25.70
2018-07-30T06:22:36.594Z,25.69
2018-07-30T06:23:08.610Z,25.69
2018-07-30T06:23:40.633Z,25.71
2018-07-30T06:24:12.649Z,25.71
2018-07-30T06:24:45.050Z,25.70
2018-07-30T06:25:16.926Z,25.69
2018-07-30T06:25:48.953Z,25.71
2018-07-30T06:26:21.039Z,25.69
2018-07-30T06:26:53.006Z,25.70
2018-07-30T06:27:25.063Z,25.70
2018-07-30T06:27:57.038Z,25.69
2018-07-30T06:28:29.066Z,25.70
2018-07-30T06:29:01.156Z,25.69
2018-07-30T06:29:33.141Z,25.69
2018-07-30T06:30:05.138Z,25.69
2018-07-30T06:30:37.164Z,25.68
2018-07-30T06:31:09.171Z,25.69
2018-07-30T06:31:41.185Z,25.68
2018-07-30T06:32:13.193Z,25.68
2018-07-30T06:32:45.215Z,25.68
2018-07-30T06:33:17.234Z,25.69
2018-07-30T06:33:49.243Z,25.70
2018-07-30T06:34:21.263Z,25.72
2018-07-30T06:34:53.278Z,25.72
2018-07-30T06:35:25.283Z,25.72
2018-07-30T06:35:57.293Z,25.71
2018-07-30T06:36:29.366Z,25.70
2018-07-30T06:37:01.340Z,25.71
2018-07-30T06:37:33.362Z,25.70
2018-07-30T06:38:05.370Z,25.71
2018-07-30T06:38:37.406Z,25.71
2018-07-30T06:39:09.413Z,25.72
2018-07-30T06:39:41.419Z,25.72
2018-07-30T06:40:13.524Z,25.73
2018-07-30T06:40:45.506Z,25.74
2018-07-30T06:41:17.515Z,25.75
2018-07-30T06:41:49.524Z,25.76
2018-07-30T06:42:21.529Z,25.77
2018-07-30T06:42:53.544Z,25.79
2018-07-30T06:43:25.561Z,25.79
2018-07-30T06:43:57.577Z,25.79
2018-07-30T06:44:29.582Z,25.81
2018-07-30T06:45:01.604Z,25.81
2018-07-30T06:45:33.617Z,25.82
2018-07-30T06:46:05.618Z,25.82
2018-07-30T06:46:37.632Z,25.82
2018-07-30T06:47:09.655Z,25.82
2018-07-30T06:47:41.670Z,25.82
2018-07-30T06:48:13.675Z,25.83
2018-07-30T06:48:45.715Z,25.83
2018-07-30T06:49:17.729Z,25.80
2018-07-30T06:49:49.746Z,25.81
2018-07-30T06:50:21.763Z,25.81
2018-07-30T06:50:53.780Z,25.81
2018-07-30T06:51:25.807Z,25.81
2018-07-30T06:51:57.839Z,25.82
2018-07-30T06:52:29.850Z,25.83